sensor_id;sensor_type;location;lat;lon;timestamp;P1;durP1;ratioP1;P2;durP2;ratioP2
50555;SDS011;36508;52.512;13.450;2022-07-25T00:01:41;4.40;;;4.10;;
50555;SDS011;36508;52.512;13.450;2022-07-25T00:04:07;4.57;;;4.27;;
50555;SDS011;36508;52.512;13.450;2022-07-25T00:06:33;4.83;;;4.53;;
50555;SDS011;36508;52.512;13.450;2022-07-25T00:09:03;3.50;;;3.30;;
50555;SDS011;36508;52.512;13.450;2022-07-25T00:11:29;3.20;;;3.00;;
50555;SDS011;36508;52.512;13.450;2022-07-25T00:13:54;3.73;;;3.40;;
50555;SDS011;36508;52.512;13.450;2022-07-25T00:16:20;3.57;;;3.27;;
50555;SDS011;36508;52.512;13.450;2022-07-25T00:18:46;3.10;;;2.90;;
50555;SDS011;36508;52.512;13.450;2022-07-25T00:21:13;3.80;;;3.50;;
50555;SDS011;36508;52.512;13.450;2022-07-25T00:23:39;3.00;;;2.90;;
50555;SDS011;36508;52.512;13.450;2022-07-25T00:26:05;3.20;;;2.80;;
50555;SDS011;36508;52.512;13.450;2022-07-25T00:28:30;3.67;;;3.47;;
50555;SDS011;36508;52.512;13.450;2022-07-25T00:30:56;2.87;;;2.77;;
50555;SDS011;36508;52.512;13.450;2022-07-25T00:33:22;3.70;;;3.40;;
50555;SDS011;36508;52.512;13.450;2022-07-25T00:35:48;3.70;;;3.40;;
50555;SDS011;36508;52.512;13.450;2022-07-25T00:38:13;3.77;;;3.10;;
50555;SDS011;36508;52.512;13.450;2022-07-25T00:40:39;4.40;;;2.33;;
50555;SDS011;36508;52.512;13.450;2022-07-25T00:43:05;4.10;;;3.80;;
50555;SDS011;36508;52.512;13.450;2022-07-25T00:45:31;3.00;;;2.90;;
50555;SDS011;36508;52.512;13.450;2022-07-25T00:47:57;3.63;;;3.00;;
50555;SDS011;36508;52.512;13.450;2022-07-25T00:50:22;3.40;;;3.20;;
50555;SDS011;36508;52.512;13.450;2022-07-25T00:52:48;3.40;;;3.20;;
50555;SDS011;36508;52.512;13.450;2022-07-25T00:55:14;2.90;;;2.80;;
50555;SDS011;36508;52.512;13.450;2022-07-25T00:57:40;3.43;;;3.23;;
50555;SDS011;36508;52.512;13.450;2022-07-25T01:00:07;4.50;;;4.20;;
50555;SDS011;36508;52.512;13.450;2022-07-25T01:02:36;4.33;;;2.93;;
50555;SDS011;36508;52.512;13.450;2022-07-25T01:05:02;3.70;;;3.37;;
50555;SDS011;36508;52.512;13.450;2022-07-25T01:07:29;2.97;;;2.77;;
50555;SDS011;36508;52.512;13.450;2022-07-25T01:09:55;3.30;;;3.00;;
50555;SDS011;36508;52.512;13.450;2022-07-25T01:12:21;4.60;;;4.30;;
50555;SDS011;36508;52.512;13.450;2022-07-25T01:14:47;3.67;;;3.30;;
50555;SDS011;36508;52.512;13.450;2022-07-25T01:17:13;2.70;;;2.60;;
50555;SDS011;36508;52.512;13.450;2022-07-25T01:19:39;2.60;;;2.50;;
50555;SDS011;36508;52.512;13.450;2022-07-25T01:22:04;3.70;;;3.50;;
50555;SDS011;36508;52.512;13.450;2022-07-25T01:24:32;3.30;;;3.10;;
50555;SDS011;36508;52.512;13.450;2022-07-25T01:26:59;4.33;;;3.93;;
50555;SDS011;36508;52.512;13.450;2022-07-25T01:29:25;4.17;;;3.87;;
50555;SDS011;36508;52.512;13.450;2022-07-25T01:31:51;3.17;;;2.97;;
50555;SDS011;36508;52.512;13.450;2022-07-25T01:34:16;2.83;;;2.73;;
50555;SDS011;36508;52.512;13.450;2022-07-25T01:36:42;4.03;;;3.73;;
50555;SDS011;36508;52.512;13.450;2022-07-25T01:39:08;3.73;;;3.43;;
50555;SDS011;36508;52.512;13.450;2022-07-25T01:41:34;3.60;;;3.30;;
50555;SDS011;36508;52.512;13.450;2022-07-25T01:44:01;3.80;;;3.60;;
50555;SDS011;36508;52.512;13.450;2022-07-25T01:46:27;3.00;;;2.90;;
50555;SDS011;36508;52.512;13.450;2022-07-25T01:48:53;4.43;;;4.07;;
50555;SDS011;36508;52.512;13.450;2022-07-25T01:51:19;3.00;;;2.90;;
50555;SDS011;36508;52.512;13.450;2022-07-25T01:53:45;2.63;;;2.53;;
50555;SDS011;36508;52.512;13.450;2022-07-25T01:56:10;4.90;;;2.43;;
50555;SDS011;36508;52.512;13.450;2022-07-25T01:58:36;3.20;;;3.10;;
50555;SDS011;36508;52.512;13.450;2022-07-25T02:01:02;3.47;;;3.17;;
50555;SDS011;36508;52.512;13.450;2022-07-25T02:03:28;2.83;;;2.73;;
50555;SDS011;36508;52.512;13.450;2022-07-25T02:05:54;3.37;;;3.07;;
50555;SDS011;36508;52.512;13.450;2022-07-25T02:08:24;4.30;;;4.07;;
50555;SDS011;36508;52.512;13.450;2022-07-25T02:10:50;6.17;;;5.67;;
50555;SDS011;36508;52.512;13.450;2022-07-25T02:13:16;3.97;;;3.77;;
50555;SDS011;36508;52.512;13.450;2022-07-25T02:15:42;5.20;;;4.80;;
50555;SDS011;36508;52.512;13.450;2022-07-25T02:18:08;3.30;;;3.20;;
50555;SDS011;36508;52.512;13.450;2022-07-25T02:20:34;3.23;;;2.97;;
50555;SDS011;36508;52.512;13.450;2022-07-25T02:22:59;2.97;;;2.87;;
50555;SDS011;36508;52.512;13.450;2022-07-25T02:25:26;3.13;;;3.03;;
50555;SDS011;36508;52.512;13.450;2022-07-25T02:27:51;2.97;;;2.77;;
50555;SDS011;36508;52.512;13.450;2022-07-25T02:30:17;3.33;;;3.13;;
50555;SDS011;36508;52.512;13.450;2022-07-25T02:32:42;3.30;;;3.10;;
50555;SDS011;36508;52.512;13.450;2022-07-25T02:35:08;2.80;;;2.60;;
50555;SDS011;36508;52.512;13.450;2022-07-25T02:37:34;3.63;;;3.40;;
50555;SDS011;36508;52.512;13.450;2022-07-25T02:40:00;7.10;;;4.10;;
50555;SDS011;36508;52.512;13.450;2022-07-25T02:42:25;4.03;;;3.83;;
50555;SDS011;36508;52.512;13.450;2022-07-25T02:44:51;3.50;;;3.30;;
50555;SDS011;36508;52.512;13.450;2022-07-25T02:47:17;3.00;;;2.87;;
50555;SDS011;36508;52.512;13.450;2022-07-25T02:49:42;3.30;;;3.00;;
50555;SDS011;36508;52.512;13.450;2022-07-25T02:52:08;2.77;;;2.67;;
50555;SDS011;36508;52.512;13.450;2022-07-25T02:54:34;3.87;;;3.57;;
50555;SDS011;36508;52.512;13.450;2022-07-25T02:56:59;5.60;;;5.10;;
50555;SDS011;36508;52.512;13.450;2022-07-25T02:59:25;4.30;;;3.93;;
50555;SDS011;36508;52.512;13.450;2022-07-25T03:01:51;2.87;;;2.77;;
50555;SDS011;36508;52.512;13.450;2022-07-25T03:04:17;3.60;;;3.30;;
50555;SDS011;36508;52.512;13.450;2022-07-25T03:06:42;3.50;;;3.33;;
50555;SDS011;36508;52.512;13.450;2022-07-25T03:09:08;4.30;;;4.00;;
50555;SDS011;36508;52.512;13.450;2022-07-25T03:11:34;3.80;;;3.60;;
50555;SDS011;36508;52.512;13.450;2022-07-25T03:14:00;3.83;;;3.63;;
50555;SDS011;36508;52.512;13.450;2022-07-25T03:16:25;3.93;;;3.70;;
50555;SDS011;36508;52.512;13.450;2022-07-25T03:18:51;3.43;;;3.17;;
50555;SDS011;36508;52.512;13.450;2022-07-25T03:21:17;2.70;;;2.60;;
50555;SDS011;36508;52.512;13.450;2022-07-25T03:23:43;3.60;;;3.30;;
50555;SDS011;36508;52.512;13.450;2022-07-25T03:26:08;3.27;;;3.07;;
50555;SDS011;36508;52.512;13.450;2022-07-25T03:28:34;4.00;;;3.70;;
50555;SDS011;36508;52.512;13.450;2022-07-25T03:31:00;3.63;;;3.33;;
50555;SDS011;36508;52.512;13.450;2022-07-25T03:33:26;3.17;;;3.07;;
50555;SDS011;36508;52.512;13.450;2022-07-25T03:35:52;2.90;;;2.70;;
50555;SDS011;36508;52.512;13.450;2022-07-25T03:38:17;4.60;;;4.30;;
50555;SDS011;36508;52.512;13.450;2022-07-25T03:40:43;3.73;;;3.53;;
50555;SDS011;36508;52.512;13.450;2022-07-25T03:43:09;3.47;;;3.27;;
50555;SDS011;36508;52.512;13.450;2022-07-25T03:45:34;3.17;;;3.00;;
50555;SDS011;36508;52.512;13.450;2022-07-25T03:48:00;3.50;;;3.20;;
50555;SDS011;36508;52.512;13.450;2022-07-25T03:50:26;3.37;;;3.07;;
50555;SDS011;36508;52.512;13.450;2022-07-25T03:52:52;3.73;;;3.43;;
50555;SDS011;36508;52.512;13.450;2022-07-25T03:55:17;4.53;;;4.20;;
50555;SDS011;36508;52.512;13.450;2022-07-25T03:57:43;4.10;;;3.83;;
50555;SDS011;36508;52.512;13.450;2022-07-25T04:00:09;4.07;;;3.57;;
50555;SDS011;36508;52.512;13.450;2022-07-25T04:02:36;2.90;;;2.80;;
50555;SDS011;36508;52.512;13.450;2022-07-25T04:05:03;3.07;;;2.80;;
50555;SDS011;36508;52.512;13.450;2022-07-25T04:07:30;3.60;;;3.40;;
50555;SDS011;36508;52.512;13.450;2022-07-25T04:09:55;3.07;;;2.87;;
50555;SDS011;36508;52.512;13.450;2022-07-25T04:12:21;3.60;;;3.40;;
50555;SDS011;36508;52.512;13.450;2022-07-25T04:14:47;4.20;;;4.00;;
50555;SDS011;36508;52.512;13.450;2022-07-25T04:17:13;4.07;;;3.83;;
50555;SDS011;36508;52.512;13.450;2022-07-25T04:19:39;3.30;;;3.00;;
50555;SDS011;36508;52.512;13.450;2022-07-25T04:22:05;4.03;;;3.73;;
50555;SDS011;36508;52.512;13.450;2022-07-25T04:24:30;3.47;;;3.27;;
50555;SDS011;36508;52.512;13.450;2022-07-25T04:26:56;3.50;;;3.20;;
50555;SDS011;36508;52.512;13.450;2022-07-25T04:29:22;3.50;;;3.20;;
50555;SDS011;36508;52.512;13.450;2022-07-25T04:31:48;3.50;;;3.10;;
50555;SDS011;36508;52.512;13.450;2022-07-25T04:34:13;4.77;;;3.33;;
50555;SDS011;36508;52.512;13.450;2022-07-25T04:36:39;3.30;;;3.00;;
50555;SDS011;36508;52.512;13.450;2022-07-25T04:39:05;2.70;;;2.60;;
50555;SDS011;36508;52.512;13.450;2022-07-25T04:41:31;4.00;;;3.80;;
50555;SDS011;36508;52.512;13.450;2022-07-25T04:43:57;2.63;;;2.53;;
50555;SDS011;36508;52.512;13.450;2022-07-25T04:46:23;2.87;;;2.77;;
50555;SDS011;36508;52.512;13.450;2022-07-25T04:48:49;3.03;;;2.83;;
50555;SDS011;36508;52.512;13.450;2022-07-25T04:51:15;2.90;;;2.80;;
50555;SDS011;36508;52.512;13.450;2022-07-25T04:53:42;4.57;;;4.23;;
50555;SDS011;36508;52.512;13.450;2022-07-25T04:56:08;3.80;;;3.53;;
50555;SDS011;36508;52.512;13.450;2022-07-25T04:58:34;4.60;;;4.20;;
50555;SDS011;36508;52.512;13.450;2022-07-25T05:01:00;4.37;;;3.97;;
50555;SDS011;36508;52.512;13.450;2022-07-25T05:03:26;5.47;;;3.10;;
50555;SDS011;36508;52.512;13.450;2022-07-25T05:05:52;3.03;;;2.80;;
50555;SDS011;36508;52.512;13.450;2022-07-25T05:08:18;6.40;;;3.87;;
50555;SDS011;36508;52.512;13.450;2022-07-25T05:10:44;4.10;;;2.40;;
50555;SDS011;36508;52.512;13.450;2022-07-25T05:13:09;2.80;;;2.60;;
50555;SDS011;36508;52.512;13.450;2022-07-25T05:15:35;3.87;;;3.57;;
50555;SDS011;36508;52.512;13.450;2022-07-25T05:18:01;3.23;;;3.03;;
50555;SDS011;36508;52.512;13.450;2022-07-25T05:20:27;3.13;;;2.93;;
50555;SDS011;36508;52.512;13.450;2022-07-25T05:22:53;4.40;;;4.00;;
50555;SDS011;36508;52.512;13.450;2022-07-25T05:25:18;3.73;;;2.70;;
50555;SDS011;36508;52.512;13.450;2022-07-25T05:27:45;2.93;;;2.80;;
50555;SDS011;36508;52.512;13.450;2022-07-25T05:30:12;7.07;;;3.03;;
50555;SDS011;36508;52.512;13.450;2022-07-25T05:32:38;3.20;;;2.80;;
50555;SDS011;36508;52.512;13.450;2022-07-25T05:35:05;3.17;;;3.00;;
50555;SDS011;36508;52.512;13.450;2022-07-25T05:37:33;4.23;;;3.47;;
50555;SDS011;36508;52.512;13.450;2022-07-25T05:39:59;7.70;;;3.57;;
50555;SDS011;36508;52.512;13.450;2022-07-25T05:42:26;3.00;;;2.73;;
50555;SDS011;36508;52.512;13.450;2022-07-25T05:44:51;2.40;;;2.30;;
50555;SDS011;36508;52.512;13.450;2022-07-25T05:47:17;3.57;;;3.37;;
50555;SDS011;36508;52.512;13.450;2022-07-25T05:49:42;3.10;;;2.90;;
50555;SDS011;36508;52.512;13.450;2022-07-25T05:52:08;3.40;;;3.20;;
50555;SDS011;36508;52.512;13.450;2022-07-25T05:54:34;4.20;;;3.90;;
50555;SDS011;36508;52.512;13.450;2022-07-25T05:57:00;4.63;;;3.30;;
50555;SDS011;36508;52.512;13.450;2022-07-25T05:59:26;4.77;;;4.50;;
50555;SDS011;36508;52.512;13.450;2022-07-25T06:01:52;4.43;;;4.10;;
50555;SDS011;36508;52.512;13.450;2022-07-25T06:04:17;4.30;;;4.10;;
50555;SDS011;36508;52.512;13.450;2022-07-25T06:06:43;6.23;;;5.83;;
50555;SDS011;36508;52.512;13.450;2022-07-25T06:09:15;5.17;;;3.97;;
50555;SDS011;36508;52.512;13.450;2022-07-25T06:11:41;4.87;;;4.67;;
50555;SDS011;36508;52.512;13.450;2022-07-25T06:14:07;5.30;;;3.43;;
50555;SDS011;36508;52.512;13.450;2022-07-25T06:16:33;4.73;;;4.30;;
50555;SDS011;36508;52.512;13.450;2022-07-25T06:18:59;3.80;;;3.50;;
50555;SDS011;36508;52.512;13.450;2022-07-25T06:21:24;8.57;;;5.43;;
50555;SDS011;36508;52.512;13.450;2022-07-25T06:23:50;4.33;;;4.03;;
50555;SDS011;36508;52.512;13.450;2022-07-25T06:26:15;5.50;;;4.60;;
50555;SDS011;36508;52.512;13.450;2022-07-25T06:28:41;6.30;;;4.57;;
50555;SDS011;36508;52.512;13.450;2022-07-25T06:31:07;4.70;;;3.80;;
50555;SDS011;36508;52.512;13.450;2022-07-25T06:33:32;4.70;;;3.87;;
50555;SDS011;36508;52.512;13.450;2022-07-25T06:35:58;4.33;;;4.10;;
50555;SDS011;36508;52.512;13.450;2022-07-25T06:38:24;4.57;;;4.27;;
50555;SDS011;36508;52.512;13.450;2022-07-25T06:40:49;4.70;;;4.40;;
50555;SDS011;36508;52.512;13.450;2022-07-25T06:43:15;4.10;;;3.90;;
50555;SDS011;36508;52.512;13.450;2022-07-25T06:45:41;4.07;;;3.87;;
50555;SDS011;36508;52.512;13.450;2022-07-25T06:48:11;4.70;;;4.30;;
50555;SDS011;36508;52.512;13.450;2022-07-25T06:50:38;5.20;;;4.30;;
50555;SDS011;36508;52.512;13.450;2022-07-25T06:53:03;4.80;;;4.50;;
50555;SDS011;36508;52.512;13.450;2022-07-25T06:55:29;5.23;;;4.90;;
50555;SDS011;36508;52.512;13.450;2022-07-25T06:57:55;4.77;;;4.37;;
50555;SDS011;36508;52.512;13.450;2022-07-25T07:00:21;6.63;;;5.97;;
50555;SDS011;36508;52.512;13.450;2022-07-25T07:02:54;6.57;;;5.40;;
50555;SDS011;36508;52.512;13.450;2022-07-25T07:05:25;7.20;;;6.30;;
50555;SDS011;36508;52.512;13.450;2022-07-25T07:07:55;7.37;;;6.63;;
50555;SDS011;36508;52.512;13.450;2022-07-25T07:10:22;7.67;;;6.90;;
50555;SDS011;36508;52.512;13.450;2022-07-25T07:12:48;13.80;;;6.70;;
50555;SDS011;36508;52.512;13.450;2022-07-25T07:15:14;11.50;;;6.40;;
50555;SDS011;36508;52.512;13.450;2022-07-25T07:17:40;7.37;;;6.77;;
50555;SDS011;36508;52.512;13.450;2022-07-25T07:20:06;6.40;;;5.67;;
50555;SDS011;36508;52.512;13.450;2022-07-25T07:22:46;5.10;;;4.47;;
50555;SDS011;36508;52.512;13.450;2022-07-25T07:25:13;6.13;;;5.63;;
50555;SDS011;36508;52.512;13.450;2022-07-25T07:27:40;6.50;;;6.10;;
50555;SDS011;36508;52.512;13.450;2022-07-25T07:30:07;6.90;;;6.43;;
50555;SDS011;36508;52.512;13.450;2022-07-25T07:32:33;6.30;;;6.00;;
50555;SDS011;36508;52.512;13.450;2022-07-25T07:34:59;6.27;;;5.97;;
50555;SDS011;36508;52.512;13.450;2022-07-25T07:37:25;7.47;;;6.70;;
50555;SDS011;36508;52.512;13.450;2022-07-25T07:39:51;6.03;;;5.53;;
50555;SDS011;36508;52.512;13.450;2022-07-25T07:42:17;6.00;;;5.60;;
50555;SDS011;36508;52.512;13.450;2022-07-25T07:44:43;13.10;;;6.63;;
50555;SDS011;36508;52.512;13.450;2022-07-25T07:47:08;6.40;;;5.90;;
50555;SDS011;36508;52.512;13.450;2022-07-25T07:49:34;9.30;;;6.40;;
50555;SDS011;36508;52.512;13.450;2022-07-25T07:52:00;19.27;;;7.50;;
50555;SDS011;36508;52.512;13.450;2022-07-25T07:54:26;8.27;;;7.67;;
50555;SDS011;36508;52.512;13.450;2022-07-25T07:57:10;8.33;;;7.67;;
50555;SDS011;36508;52.512;13.450;2022-07-25T07:59:36;6.83;;;6.27;;
50555;SDS011;36508;52.512;13.450;2022-07-25T08:02:02;6.17;;;5.80;;
50555;SDS011;36508;52.512;13.450;2022-07-25T08:04:28;7.47;;;5.70;;
50555;SDS011;36508;52.512;13.450;2022-07-25T08:06:54;6.83;;;6.43;;
50555;SDS011;36508;52.512;13.450;2022-07-25T08:09:20;7.27;;;6.67;;
50555;SDS011;36508;52.512;13.450;2022-07-25T08:11:46;5.87;;;5.57;;
50555;SDS011;36508;52.512;13.450;2022-07-25T08:14:12;8.43;;;5.70;;
50555;SDS011;36508;52.512;13.450;2022-07-25T08:16:38;7.30;;;6.90;;
50555;SDS011;36508;52.512;13.450;2022-07-25T08:19:04;6.80;;;6.20;;
50555;SDS011;36508;52.512;13.450;2022-07-25T08:21:30;6.90;;;6.47;;
50555;SDS011;36508;52.512;13.450;2022-07-25T08:23:56;7.27;;;6.77;;
50555;SDS011;36508;52.512;13.450;2022-07-25T08:26:21;8.43;;;7.93;;
50555;SDS011;36508;52.512;13.450;2022-07-25T08:28:47;7.53;;;6.83;;
50555;SDS011;36508;52.512;13.450;2022-07-25T08:31:13;8.13;;;7.63;;
50555;SDS011;36508;52.512;13.450;2022-07-25T08:33:38;7.67;;;7.10;;
50555;SDS011;36508;52.512;13.450;2022-07-25T08:36:04;7.87;;;7.27;;
50555;SDS011;36508;52.512;13.450;2022-07-25T08:38:30;7.53;;;6.93;;
50555;SDS011;36508;52.512;13.450;2022-07-25T08:40:56;7.80;;;7.40;;
50555;SDS011;36508;52.512;13.450;2022-07-25T08:43:23;7.97;;;7.37;;
50555;SDS011;36508;52.512;13.450;2022-07-25T08:45:50;8.10;;;7.23;;
50555;SDS011;36508;52.512;13.450;2022-07-25T08:48:19;9.83;;;9.27;;
50555;SDS011;36508;52.512;13.450;2022-07-25T08:50:46;9.77;;;8.97;;
50555;SDS011;36508;52.512;13.450;2022-07-25T08:53:14;7.77;;;7.27;;
50555;SDS011;36508;52.512;13.450;2022-07-25T08:55:43;8.87;;;8.03;;
50555;SDS011;36508;52.512;13.450;2022-07-25T08:58:09;9.60;;;8.70;;
50555;SDS011;36508;52.512;13.450;2022-07-25T09:00:36;9.07;;;8.47;;
50555;SDS011;36508;52.512;13.450;2022-07-25T09:03:03;8.43;;;7.90;;
50555;SDS011;36508;52.512;13.450;2022-07-25T09:05:32;11.80;;;11.07;;
50555;SDS011;36508;52.512;13.450;2022-07-25T09:10:36;8.67;;;8.17;;
50555;SDS011;36508;52.512;13.450;2022-07-25T09:13:04;9.13;;;8.43;;
50555;SDS011;36508;52.512;13.450;2022-07-25T09:15:43;10.47;;;9.67;;
50555;SDS011;36508;52.512;13.450;2022-07-25T09:18:17;12.30;;;11.47;;
50555;SDS011;36508;52.512;13.450;2022-07-25T09:20:54;16.77;;;10.13;;
50555;SDS011;36508;52.512;13.450;2022-07-25T09:23:29;12.17;;;10.10;;
50555;SDS011;36508;52.512;13.450;2022-07-25T09:28:31;10.83;;;10.17;;
50555;SDS011;36508;52.512;13.450;2022-07-25T09:31:04;9.80;;;9.20;;
50555;SDS011;36508;52.512;13.450;2022-07-25T09:33:30;14.23;;;10.93;;
50555;SDS011;36508;52.512;13.450;2022-07-25T09:35:56;11.97;;;11.03;;
50555;SDS011;36508;52.512;13.450;2022-07-25T09:38:22;9.90;;;9.20;;
50555;SDS011;36508;52.512;13.450;2022-07-25T09:40:53;10.87;;;9.90;;
50555;SDS011;36508;52.512;13.450;2022-07-25T09:43:21;11.10;;;10.50;;
50555;SDS011;36508;52.512;13.450;2022-07-25T09:45:48;10.00;;;9.43;;
50555;SDS011;36508;52.512;13.450;2022-07-25T09:48:16;9.33;;;8.93;;
50555;SDS011;36508;52.512;13.450;2022-07-25T09:50:44;10.03;;;9.43;;
50555;SDS011;36508;52.512;13.450;2022-07-25T09:53:11;11.63;;;10.83;;
50555;SDS011;36508;52.512;13.450;2022-07-25T09:55:37;10.80;;;9.97;;
50555;SDS011;36508;52.512;13.450;2022-07-25T09:58:02;10.23;;;9.40;;
50555;SDS011;36508;52.512;13.450;2022-07-25T10:00:28;10.30;;;9.80;;
50555;SDS011;36508;52.512;13.450;2022-07-25T10:08:33;10.70;;;9.90;;
50555;SDS011;36508;52.512;13.450;2022-07-25T10:11:03;9.20;;;8.70;;
50555;SDS011;36508;52.512;13.450;2022-07-25T10:13:31;11.03;;;10.33;;
50555;SDS011;36508;52.512;13.450;2022-07-25T10:15:59;11.37;;;10.77;;
50555;SDS011;36508;52.512;13.450;2022-07-25T10:18:27;10.80;;;10.30;;
50555;SDS011;36508;52.512;13.450;2022-07-25T10:20:55;9.87;;;9.27;;
50555;SDS011;36508;52.512;13.450;2022-07-25T10:23:35;10.37;;;9.77;;
50555;SDS011;36508;52.512;13.450;2022-07-25T10:26:09;10.17;;;9.57;;
50555;SDS011;36508;52.512;13.450;2022-07-25T10:28:44;11.10;;;10.50;;
50555;SDS011;36508;52.512;13.450;2022-07-25T10:31:15;11.27;;;10.67;;
50555;SDS011;36508;52.512;13.450;2022-07-25T10:33:52;12.63;;;11.63;;
50555;SDS011;36508;52.512;13.450;2022-07-25T10:36:21;11.70;;;11.00;;
50555;SDS011;36508;52.512;13.450;2022-07-25T10:38:52;10.10;;;9.50;;
50555;SDS011;36508;52.512;13.450;2022-07-25T10:41:25;11.57;;;10.87;;
50555;SDS011;36508;52.512;13.450;2022-07-25T10:43:55;12.00;;;11.30;;
50555;SDS011;36508;52.512;13.450;2022-07-25T10:46:25;11.40;;;10.60;;
50555;SDS011;36508;52.512;13.450;2022-07-25T10:48:58;10.47;;;9.87;;
50555;SDS011;36508;52.512;13.450;2022-07-25T10:51:27;10.90;;;10.20;;
50555;SDS011;36508;52.512;13.450;2022-07-25T10:53:55;11.33;;;10.60;;
50555;SDS011;36508;52.512;13.450;2022-07-25T10:56:22;11.47;;;10.73;;
50555;SDS011;36508;52.512;13.450;2022-07-25T10:58:51;11.83;;;10.70;;
50555;SDS011;36508;52.512;13.450;2022-07-25T11:01:19;11.37;;;10.77;;
50555;SDS011;36508;52.512;13.450;2022-07-25T11:03:53;11.43;;;10.90;;
50555;SDS011;36508;52.512;13.450;2022-07-25T11:06:37;13.07;;;12.37;;
50555;SDS011;36508;52.512;13.450;2022-07-25T11:09:12;13.07;;;11.90;;
50555;SDS011;36508;52.512;13.450;2022-07-25T11:11:40;14.80;;;11.83;;
50555;SDS011;36508;52.512;13.450;2022-07-25T11:14:16;11.60;;;11.00;;
50555;SDS011;36508;52.512;13.450;2022-07-25T11:16:44;12.40;;;11.70;;
50555;SDS011;36508;52.512;13.450;2022-07-25T11:19:25;12.13;;;11.53;;
50555;SDS011;36508;52.512;13.450;2022-07-25T11:21:55;12.03;;;11.33;;
50555;SDS011;36508;52.512;13.450;2022-07-25T11:24:33;12.60;;;11.80;;
50555;SDS011;36508;52.512;13.450;2022-07-25T11:27:01;12.40;;;11.60;;
50555;SDS011;36508;52.512;13.450;2022-07-25T11:29:27;10.73;;;10.33;;
50555;SDS011;36508;52.512;13.450;2022-07-25T11:31:57;11.80;;;11.00;;
50555;SDS011;36508;52.512;13.450;2022-07-25T11:34:28;10.80;;;10.30;;
50555;SDS011;36508;52.512;13.450;2022-07-25T11:36:57;11.97;;;11.03;;
50555;SDS011;36508;52.512;13.450;2022-07-25T11:39:25;10.57;;;9.97;;
50555;SDS011;36508;52.512;13.450;2022-07-25T11:42:02;10.73;;;10.13;;
50555;SDS011;36508;52.512;13.450;2022-07-25T11:44:39;13.47;;;12.60;;
50555;SDS011;36508;52.512;13.450;2022-07-25T11:47:29;12.30;;;11.67;;
50555;SDS011;36508;52.512;13.450;2022-07-25T11:50:00;19.67;;;11.10;;
50555;SDS011;36508;52.512;13.450;2022-07-25T11:52:29;11.87;;;11.17;;
50555;SDS011;36508;52.512;13.450;2022-07-25T11:55:01;10.83;;;10.03;;
50555;SDS011;36508;52.512;13.450;2022-07-25T11:57:29;11.83;;;11.10;;
50555;SDS011;36508;52.512;13.450;2022-07-25T11:59:56;11.63;;;10.93;;
50555;SDS011;36508;52.512;13.450;2022-07-25T12:02:30;11.53;;;10.60;;
50555;SDS011;36508;52.512;13.450;2022-07-25T12:05:01;10.93;;;10.40;;
50555;SDS011;36508;52.512;13.450;2022-07-25T12:10:00;10.60;;;10.10;;
50555;SDS011;36508;52.512;13.450;2022-07-25T12:12:26;10.30;;;9.80;;
50555;SDS011;36508;52.512;13.450;2022-07-25T12:14:52;12.63;;;11.80;;
50555;SDS011;36508;52.512;13.450;2022-07-25T12:17:17;12.67;;;11.87;;
50555;SDS011;36508;52.512;13.450;2022-07-25T12:19:46;12.27;;;11.47;;
50555;SDS011;36508;52.512;13.450;2022-07-25T12:22:12;11.33;;;10.73;;
50555;SDS011;36508;52.512;13.450;2022-07-25T12:24:37;12.27;;;11.30;;
50555;SDS011;36508;52.512;13.450;2022-07-25T12:27:03;10.93;;;10.43;;
50555;SDS011;36508;52.512;13.450;2022-07-25T12:29:29;11.10;;;10.50;;
50555;SDS011;36508;52.512;13.450;2022-07-25T12:31:54;10.87;;;10.23;;
50555;SDS011;36508;52.512;13.450;2022-07-25T12:34:20;11.13;;;10.43;;
50555;SDS011;36508;52.512;13.450;2022-07-25T12:36:45;10.80;;;10.20;;
50555;SDS011;36508;52.512;13.450;2022-07-25T12:39:11;10.80;;;10.30;;
50555;SDS011;36508;52.512;13.450;2022-07-25T12:41:37;13.53;;;12.73;;
50555;SDS011;36508;52.512;13.450;2022-07-25T12:44:04;12.97;;;12.37;;
50555;SDS011;36508;52.512;13.450;2022-07-25T12:46:30;12.80;;;12.10;;
50555;SDS011;36508;52.512;13.450;2022-07-25T12:48:55;9.77;;;9.20;;
50555;SDS011;36508;52.512;13.450;2022-07-25T12:51:21;11.33;;;10.83;;
50555;SDS011;36508;52.512;13.450;2022-07-25T12:53:47;10.67;;;10.07;;
50555;SDS011;36508;52.512;13.450;2022-07-25T12:56:14;11.17;;;10.53;;
50555;SDS011;36508;52.512;13.450;2022-07-25T12:58:39;9.43;;;9.00;;
50555;SDS011;36508;52.512;13.450;2022-07-25T13:01:05;10.30;;;9.70;;
50555;SDS011;36508;52.512;13.450;2022-07-25T13:03:32;11.10;;;10.50;;
50555;SDS011;36508;52.512;13.450;2022-07-25T13:05:57;10.67;;;10.17;;
50555;SDS011;36508;52.512;13.450;2022-07-25T13:08:23;10.70;;;10.07;;
50555;SDS011;36508;52.512;13.450;2022-07-25T13:10:49;10.30;;;9.77;;
50555;SDS011;36508;52.512;13.450;2022-07-25T13:13:14;13.70;;;12.83;;
50555;SDS011;36508;52.512;13.450;2022-07-25T13:15:40;10.90;;;10.20;;
50555;SDS011;36508;52.512;13.450;2022-07-25T13:18:06;11.60;;;10.87;;
50555;SDS011;36508;52.512;13.450;2022-07-25T13:20:31;12.60;;;11.87;;
50555;SDS011;36508;52.512;13.450;2022-07-25T13:23:00;10.37;;;9.87;;
50555;SDS011;36508;52.512;13.450;2022-07-25T13:25:25;18.00;;;16.50;;
50555;SDS011;36508;52.512;13.450;2022-07-25T13:27:51;19.00;;;17.53;;
50555;SDS011;36508;52.512;13.450;2022-07-25T13:30:17;11.90;;;11.30;;
50555;SDS011;36508;52.512;13.450;2022-07-25T13:32:43;12.50;;;11.80;;
50555;SDS011;36508;52.512;13.450;2022-07-25T13:35:08;10.47;;;9.87;;
50555;SDS011;36508;52.512;13.450;2022-07-25T13:37:35;11.50;;;10.90;;
50555;SDS011;36508;52.512;13.450;2022-07-25T13:40:00;9.23;;;8.73;;
50555;SDS011;36508;52.512;13.450;2022-07-25T13:42:26;10.50;;;10.00;;
50555;SDS011;36508;52.512;13.450;2022-07-25T13:44:52;11.83;;;11.03;;
50555;SDS011;36508;52.512;13.450;2022-07-25T13:47:17;11.03;;;10.30;;
50555;SDS011;36508;52.512;13.450;2022-07-25T13:49:43;10.67;;;9.97;;
50555;SDS011;36508;52.512;13.450;2022-07-25T13:52:09;10.90;;;10.20;;
50555;SDS011;36508;52.512;13.450;2022-07-25T13:54:34;9.73;;;9.13;;
50555;SDS011;36508;52.512;13.450;2022-07-25T13:57:01;9.70;;;9.10;;
50555;SDS011;36508;52.512;13.450;2022-07-25T13:59:27;9.67;;;9.00;;
50555;SDS011;36508;52.512;13.450;2022-07-25T14:01:53;10.30;;;9.70;;
50555;SDS011;36508;52.512;13.450;2022-07-25T14:04:19;10.43;;;9.83;;
50555;SDS011;36508;52.512;13.450;2022-07-25T14:06:44;10.53;;;10.00;;
50555;SDS011;36508;52.512;13.450;2022-07-25T14:09:15;11.87;;;10.73;;
50555;SDS011;36508;52.512;13.450;2022-07-25T14:11:42;9.80;;;9.20;;
50555;SDS011;36508;52.512;13.450;2022-07-25T14:14:08;10.67;;;10.13;;
50555;SDS011;36508;52.512;13.450;2022-07-25T14:16:34;11.23;;;10.63;;
50555;SDS011;36508;52.512;13.450;2022-07-25T14:18:59;10.10;;;9.60;;
50555;SDS011;36508;52.512;13.450;2022-07-25T14:21:26;9.77;;;9.17;;
50555;SDS011;36508;52.512;13.450;2022-07-25T14:23:52;10.47;;;9.80;;
50555;SDS011;36508;52.512;13.450;2022-07-25T14:26:17;11.40;;;10.80;;
50555;SDS011;36508;52.512;13.450;2022-07-25T14:28:43;10.07;;;9.47;;
50555;SDS011;36508;52.512;13.450;2022-07-25T14:31:09;11.40;;;10.40;;
50555;SDS011;36508;52.512;13.450;2022-07-25T14:33:35;10.87;;;10.37;;
50555;SDS011;36508;52.512;13.450;2022-07-25T14:36:04;10.63;;;10.10;;
50555;SDS011;36508;52.512;13.450;2022-07-25T14:38:33;10.13;;;9.57;;